Wallace, Alabama
Current Conditions -  °F | °C
As of 3:53 PM on Saturday 25 Oct 2014 (Local Time) from KGZH Reporting Station
Clear Clear  
Wind Chill: 79°   Ceiling: Unl
Heat Index: 79°   Visibility: 10mi
Dew Point: 49°   Wind: 8mph
Humidity: 35%   Direction: 340°NNW
Pressure: 30.04"   Gusts: NA
Location:  31.165°N, 87.0243°W
Report Text: KGZH 252053Z AUTO 34007KT 10SM CLR 26/09 A3004 RMK AO2 SLP171 T02610094 56015
Loading
Personal Weather Stations






























Interactive Weather Map
Tropical Storm Tracking
New forecast layout! Learn more

10-Day Weather Forecast

Advertisements
Track Severe Weather on mobile